createdAt,value
2019-05-21T00:00:42.901Z,302.95
2019-05-21T00:01:43.198Z,302.77
2019-05-21T00:02:42.893Z,302.93
2019-05-21T00:03:42.861Z,302.91
2019-05-21T00:04:42.853Z,302.79
2019-05-21T00:05:42.904Z,302.67
2019-05-21T00:06:42.827Z,302.88
2019-05-21T00:07:42.869Z,302.66
2019-05-21T00:08:42.841Z,302.93
2019-05-21T00:09:42.819Z,302.68
2019-05-21T00:10:42.817Z,302.91
2019-05-21T00:11:42.807Z,302.79
2019-05-21T00:12:42.775Z,302.66
2019-05-21T00:13:42.754Z,302.86
2019-05-21T00:14:42.753Z,302.58
2019-05-21T00:15:42.775Z,302.78
2019-05-21T00:16:42.762Z,302.51
2019-05-21T00:17:42.718Z,302.61
2019-05-21T00:18:42.699Z,302.61
2019-05-21T00:19:42.696Z,302.65
2019-05-21T00:20:42.687Z,302.60
2019-05-21T00:21:42.696Z,302.77
2019-05-21T00:22:42.663Z,302.94
2019-05-21T00:23:42.642Z,302.78
2019-05-21T00:24:42.647Z,302.73
2019-05-21T00:25:42.639Z,302.79
2019-05-21T00:26:42.618Z,302.86
2019-05-21T00:27:42.604Z,302.70
2019-05-21T00:28:42.591Z,302.62
2019-05-21T00:29:42.589Z,302.67
2019-05-21T00:30:42.578Z,302.76
2019-05-21T00:31:42.557Z,302.61
2019-05-21T00:32:42.570Z,302.67
2019-05-21T00:33:42.541Z,302.90
2019-05-21T00:34:44.273Z,302.87
2019-05-21T00:35:42.525Z,302.87
2019-05-21T00:36:42.506Z,303.05
2019-05-21T00:37:42.504Z,302.83
2019-05-21T00:38:42.470Z,302.73
2019-05-21T00:39:42.472Z,302.69
2019-05-21T00:40:42.466Z,302.72
2019-05-21T00:41:42.452Z,302.72
2019-05-21T00:42:42.480Z,302.47
2019-05-21T00:43:42.435Z,302.74
2019-05-21T00:44:42.422Z,302.83
2019-05-21T00:45:42.399Z,302.89
2019-05-21T00:46:42.432Z,302.48
2019-05-21T00:47:42.386Z,302.72
2019-05-21T00:48:42.400Z,302.65
2019-05-21T00:49:42.372Z,302.91
2019-05-21T00:50:42.377Z,302.48
2019-05-21T00:51:42.341Z,303.05
2019-05-21T00:52:42.336Z,302.65
2019-05-21T00:53:42.351Z,302.58
2019-05-21T00:54:42.310Z,302.66
2019-05-21T00:55:42.296Z,302.92
2019-05-21T00:56:42.281Z,302.77
2019-05-21T00:57:42.299Z,302.67
2019-05-21T00:58:42.280Z,302.89
2019-05-21T00:59:42.271Z,302.93
2019-05-21T01:00:42.237Z,302.80
2019-05-21T01:01:42.268Z,303.09
2019-05-21T01:02:42.222Z,302.62
2019-05-21T01:03:43.420Z,302.63
2019-05-21T01:04:42.198Z,302.85
2019-05-21T01:05:42.186Z,302.59
2019-05-21T01:06:42.182Z,302.69
2019-05-21T01:07:42.175Z,302.82
2019-05-21T01:08:42.163Z,302.60
2019-05-21T01:09:42.141Z,302.83
2019-05-21T01:10:42.144Z,302.78
2019-05-21T01:11:42.128Z,302.77
2019-05-21T01:12:42.127Z,302.68
2019-05-21T01:13:42.097Z,302.72
2019-05-21T01:14:42.090Z,302.65
2019-05-21T01:15:42.084Z,302.44
2019-05-21T01:16:42.077Z,302.82
2019-05-21T01:17:42.084Z,302.69
2019-05-21T01:18:42.038Z,302.45
2019-05-21T01:19:42.031Z,302.61
2019-05-21T01:20:42.027Z,302.53
2019-05-21T01:21:42.017Z,302.76
2019-05-21T01:22:42.030Z,302.73
2019-05-21T01:23:41.992Z,302.77
2019-05-21T01:24:41.986Z,302.67
2019-05-21T01:25:41.976Z,302.53
2019-05-21T01:26:41.963Z,302.56
2019-05-21T01:27:41.953Z,302.77
2019-05-21T01:28:41.948Z,302.66
2019-05-21T01:29:41.917Z,302.64
2019-05-21T01:30:41.914Z,302.64
2019-05-21T01:31:41.918Z,302.56
2019-05-21T01:32:41.889Z,302.73
2019-05-21T01:33:41.907Z,302.43
2019-05-21T01:34:41.880Z,302.76
2019-05-21T01:35:41.865Z,302.73
2019-05-21T01:36:41.857Z,302.73
2019-05-21T01:37:41.830Z,302.57
2019-05-21T01:38:41.887Z,302.71
2019-05-21T01:39:41.841Z,302.58
2019-05-21T01:40:41.815Z,302.59
2019-05-21T01:41:41.806Z,302.91
2019-05-21T01:42:41.776Z,302.67
2019-05-21T01:43:41.811Z,302.38
2019-05-21T01:44:41.780Z,302.70
2019-05-21T01:45:41.756Z,302.49
2019-05-21T01:46:41.771Z,302.56
2019-05-21T01:47:41.726Z,302.61
2019-05-21T01:48:41.754Z,302.66
2019-05-21T01:49:41.705Z,302.65
2019-05-21T01:50:41.703Z,302.57
2019-05-21T01:51:41.688Z,302.54
2019-05-21T01:52:41.688Z,302.57
2019-05-21T01:53:41.658Z,302.47
2019-05-21T01:54:41.673Z,302.75
2019-05-21T01:55:41.670Z,302.48
2019-05-21T01:56:41.625Z,302.55
2019-05-21T01:57:41.640Z,302.47
2019-05-21T01:58:41.615Z,302.46
2019-05-21T01:59:41.621Z,302.46
2019-05-21T02:00:41.583Z,302.48
2019-05-21T02:01:41.571Z,302.46
2019-05-21T02:02:41.627Z,302.66
2019-05-21T02:03:41.568Z,302.66
2019-05-21T02:04:41.595Z,302.43
2019-05-21T02:05:41.538Z,302.54
2019-05-21T02:06:41.517Z,302.55
2019-05-21T02:07:41.517Z,302.64
2019-05-21T02:08:41.494Z,302.63
2019-05-21T02:09:41.490Z,302.63
2019-05-21T02:10:41.500Z,302.67
2019-05-21T02:11:41.537Z,302.57
2019-05-21T02:12:41.465Z,302.71
2019-05-21T02:13:41.461Z,302.72
2019-05-21T02:14:41.450Z,302.58
2019-05-21T02:15:41.446Z,302.69
2019-05-21T02:16:41.419Z,302.69
2019-05-21T02:17:41.399Z,302.58
2019-05-21T02:18:41.430Z,302.59
2019-05-21T02:19:41.393Z,302.40
2019-05-21T02:20:41.402Z,302.52
2019-05-21T02:21:41.363Z,302.55
2019-05-21T02:22:41.361Z,302.41
2019-05-21T02:23:41.340Z,302.48
2019-05-21T02:24:41.328Z,302.38
2019-05-21T02:25:41.352Z,302.91
2019-05-21T02:26:41.311Z,302.26
2019-05-21T02:27:41.418Z,302.65
2019-05-21T02:28:41.293Z,302.52
2019-05-21T02:29:41.292Z,302.66
2019-05-21T02:30:41.283Z,302.42
2019-05-21T02:31:41.264Z,302.53
2019-05-21T02:32:41.254Z,302.50
2019-05-21T02:33:41.233Z,302.64
2019-05-21T02:34:41.223Z,302.70
2019-05-21T02:35:53.519Z,302.61
2019-05-21T02:36:42.220Z,302.53
2019-05-21T02:37:41.201Z,302.43
2019-05-21T02:38:41.200Z,302.51
2019-05-21T02:39:41.167Z,302.24
2019-05-21T02:40:41.155Z,302.52
2019-05-21T02:41:41.220Z,302.20
2019-05-21T02:42:42.074Z,302.41
2019-05-21T02:43:41.128Z,302.21
2019-05-21T02:44:41.113Z,302.40
2019-05-21T02:45:41.112Z,302.51
2019-05-21T02:46:41.093Z,302.41
2019-05-21T02:47:41.131Z,302.51
2019-05-21T02:48:41.081Z,302.45
2019-05-21T02:49:41.074Z,302.50
2019-05-21T02:50:41.057Z,302.40
2019-05-21T02:51:41.047Z,302.53
2019-05-21T02:52:41.032Z,302.48
2019-05-21T02:53:41.056Z,302.43
2019-05-21T02:54:41.863Z,302.46
2019-05-21T02:55:41.002Z,302.46
2019-05-21T02:56:40.995Z,302.39
2019-05-21T02:57:40.987Z,302.46
2019-05-21T02:58:41.001Z,302.56
2019-05-21T02:59:40.980Z,302.37
2019-05-21T03:00:40.957Z,302.38
2019-05-21T03:01:40.967Z,302.66
2019-05-21T03:02:40.948Z,302.60
2019-05-21T03:03:40.920Z,302.42
2019-05-21T03:04:40.944Z,302.47
2019-05-21T03:05:40.888Z,302.30
2019-05-21T03:06:40.877Z,302.22
2019-05-21T03:07:40.874Z,302.48
2019-05-21T03:08:40.874Z,302.67
2019-05-21T03:09:40.902Z,302.69
2019-05-21T03:10:40.836Z,302.30
2019-05-21T03:11:40.831Z,302.51
2019-05-21T03:12:40.853Z,302.26
2019-05-21T03:13:40.809Z,302.61
2019-05-21T03:14:40.801Z,302.46
2019-05-21T03:15:40.814Z,302.52
2019-05-21T03:16:40.783Z,302.68
2019-05-21T03:17:40.775Z,302.31
2019-05-21T03:18:40.774Z,302.18
2019-05-21T03:19:40.744Z,302.52
2019-05-21T03:20:40.735Z,302.45
2019-05-21T03:21:40.766Z,302.59
2019-05-21T03:22:40.714Z,302.34
2019-05-21T03:23:40.712Z,302.46
2019-05-21T03:24:40.698Z,302.16
2019-05-21T03:25:40.682Z,302.34
2019-05-21T03:26:40.681Z,302.52
2019-05-21T03:27:40.702Z,302.37
2019-05-21T03:28:40.665Z,302.48
2019-05-21T03:29:40.630Z,302.25
2019-05-21T03:30:40.639Z,302.34
2019-05-21T03:31:40.638Z,302.46
2019-05-21T03:32:40.634Z,302.48
2019-05-21T03:33:40.625Z,302.39
2019-05-21T03:34:40.609Z,302.32
2019-05-21T03:35:40.585Z,302.38
2019-05-21T03:36:40.584Z,302.62
2019-05-21T03:37:40.555Z,302.32
2019-05-21T03:38:40.553Z,302.36
2019-05-21T03:39:40.565Z,302.64
2019-05-21T03:40:40.531Z,302.72
2019-05-21T03:41:40.503Z,302.79
2019-05-21T03:42:40.499Z,302.52
2019-05-21T03:43:40.493Z,302.56
2019-05-21T03:44:58.288Z,302.61
2019-05-21T03:45:41.505Z,302.67
2019-05-21T03:46:40.461Z,302.62
2019-05-21T03:47:40.475Z,302.74
2019-05-21T03:48:40.446Z,302.62
2019-05-21T03:49:40.465Z,302.63
2019-05-21T03:50:40.447Z,302.65
2019-05-21T03:51:40.424Z,302.38
2019-05-21T03:52:40.384Z,302.67
2019-05-21T03:53:40.374Z,302.45
2019-05-21T03:54:40.372Z,302.58
2019-05-21T03:55:40.391Z,302.44
2019-05-21T03:56:40.357Z,302.62
2019-05-21T03:57:40.349Z,302.65
2019-05-21T03:58:40.334Z,302.63
2019-05-21T03:59:40.325Z,302.63
2019-05-21T04:00:40.331Z,302.64
2019-05-21T04:01:40.305Z,302.60
2019-05-21T04:02:40.297Z,302.59
2019-05-21T04:03:40.289Z,302.75
2019-05-21T04:04:40.258Z,302.58
2019-05-21T04:05:40.247Z,302.33
2019-05-21T04:06:51.335Z,302.78
2019-05-21T04:07:41.227Z,302.69
2019-05-21T04:08:40.219Z,302.80
2019-05-21T04:09:40.223Z,302.82
2019-05-21T04:10:40.200Z,302.67
2019-05-21T04:11:40.246Z,302.51
2019-05-21T04:12:40.189Z,302.71
2019-05-21T04:13:40.174Z,302.67
2019-05-21T04:14:40.211Z,302.76
2019-05-21T04:15:40.176Z,302.60
2019-05-21T04:16:40.140Z,302.77
2019-05-21T04:17:40.178Z,302.53
2019-05-21T04:18:40.114Z,302.58
2019-05-21T04:19:40.113Z,302.71
2019-05-21T04:20:40.101Z,302.62
2019-05-21T04:21:40.122Z,302.75
2019-05-21T04:22:40.075Z,302.62
2019-05-21T04:23:40.069Z,302.55
2019-05-21T04:24:40.057Z,302.86
2019-05-21T04:25:40.050Z,302.78
2019-05-21T04:26:40.057Z,302.51
2019-05-21T04:27:40.075Z,302.61
2019-05-21T04:28:40.021Z,302.75
2019-05-21T04:29:40.004Z,302.62
2019-05-21T04:30:39.991Z,302.54
2019-05-21T04:31:39.993Z,302.69
2019-05-21T04:32:39.970Z,302.57
2019-05-21T04:33:39.977Z,302.55
2019-05-21T04:34:39.949Z,302.63
2019-05-21T04:35:39.935Z,302.60
2019-05-21T04:36:39.936Z,302.68
2019-05-21T04:37:39.932Z,302.42
2019-05-21T04:38:39.949Z,302.63
2019-05-21T04:39:39.882Z,302.70
2019-05-21T04:40:39.891Z,302.67
2019-05-21T04:41:39.881Z,302.61
2019-05-21T04:42:39.868Z,302.76
2019-05-21T04:43:39.877Z,302.93
2019-05-21T04:44:39.855Z,302.50
2019-05-21T04:45:39.832Z,302.56
2019-05-21T04:46:39.810Z,302.74
2019-05-21T04:47:39.801Z,302.55
2019-05-21T04:48:39.782Z,302.76
2019-05-21T04:49:39.821Z,302.66
2019-05-21T04:50:39.787Z,302.45
2019-05-21T04:51:39.762Z,302.45
2019-05-21T04:52:39.753Z,302.59
2019-05-21T04:53:39.753Z,302.58
2019-05-21T04:54:39.751Z,302.62
2019-05-21T04:55:39.725Z,302.78
2019-05-21T04:56:39.708Z,302.47
2019-05-21T04:57:39.869Z,302.57
2019-05-21T04:58:39.679Z,302.56
2019-05-21T04:59:39.668Z,302.47
2019-05-21T05:00:39.695Z,302.25
2019-05-21T05:01:39.669Z,302.60
2019-05-21T05:02:39.635Z,302.50
2019-05-21T05:03:39.624Z,302.64
2019-05-21T05:04:39.665Z,302.64
2019-05-21T05:05:39.603Z,302.63
2019-05-21T05:06:39.602Z,302.63
2019-05-21T05:07:39.650Z,302.65
2019-05-21T05:08:39.580Z,302.69
2019-05-21T05:09:39.566Z,302.87
2019-05-21T05:10:39.600Z,302.85
2019-05-21T05:11:39.539Z,302.76
2019-05-21T05:12:39.536Z,302.99
2019-05-21T05:13:39.523Z,302.87
2019-05-21T05:14:39.514Z,303.00
2019-05-21T05:15:39.560Z,303.00
2019-05-21T05:16:39.510Z,302.99
2019-05-21T05:17:39.529Z,303.00
2019-05-21T05:18:39.476Z,303.03
2019-05-21T05:19:39.477Z,302.91
2019-05-21T05:20:39.450Z,303.17
2019-05-21T05:21:39.469Z,303.14
2019-05-21T05:22:39.444Z,302.95
2019-05-21T05:23:39.423Z,303.10
2019-05-21T05:24:39.392Z,303.11
2019-05-21T05:25:39.392Z,303.18
2019-05-21T05:26:39.377Z,303.05
2019-05-21T05:27:40.207Z,303.16
2019-05-21T05:28:39.370Z,302.87
2019-05-21T05:29:39.359Z,302.79
2019-05-21T05:30:39.327Z,302.89
2019-05-21T05:31:39.329Z,302.73
2019-05-21T05:32:39.327Z,302.90
2019-05-21T05:33:39.330Z,302.79
2019-05-21T05:34:39.297Z,302.70
2019-05-21T05:35:39.345Z,302.53
2019-05-21T05:36:39.430Z,302.58
2019-05-21T05:37:44.101Z,302.70
2019-05-21T05:38:40.266Z,302.69
2019-05-21T05:39:39.249Z,302.72
2019-05-21T05:40:39.228Z,302.83
2019-05-21T05:41:39.224Z,302.82
2019-05-21T05:42:39.278Z,302.92
2019-05-21T05:43:40.117Z,303.00
2019-05-21T05:44:39.208Z,303.15
2019-05-21T05:45:39.193Z,302.94
2019-05-21T05:46:39.224Z,302.99
2019-05-21T05:47:39.144Z,303.22
2019-05-21T05:48:39.161Z,302.90
2019-05-21T05:49:39.141Z,303.00
2019-05-21T05:50:39.130Z,303.07
2019-05-21T05:51:39.106Z,302.92
2019-05-21T05:52:39.106Z,302.98
2019-05-21T05:53:39.082Z,302.66
2019-05-21T05:54:39.124Z,302.72
2019-05-21T05:55:39.075Z,302.67
2019-05-21T05:56:39.064Z,302.81
2019-05-21T05:57:39.059Z,302.69
2019-05-21T05:58:39.047Z,302.97
2019-05-21T05:59:39.049Z,302.75
2019-05-21T06:00:39.016Z,302.79
2019-05-21T06:01:39.014Z,302.81
2019-05-21T06:02:38.998Z,302.83
2019-05-21T06:03:38.994Z,302.83
2019-05-21T06:04:39.095Z,302.79
2019-05-21T06:05:38.982Z,302.62
2019-05-21T06:06:38.965Z,302.90
2019-05-21T06:07:38.951Z,302.83
2019-05-21T06:08:38.933Z,302.91
2019-05-21T06:09:38.939Z,302.86
2019-05-21T06:10:40.125Z,303.00
2019-05-21T06:11:48.206Z,302.81
2019-05-21T06:12:38.898Z,302.92
2019-05-21T06:13:38.884Z,302.95
2019-05-21T06:14:38.890Z,303.26
2019-05-21T06:15:48.735Z,302.98
2019-05-21T06:16:38.828Z,302.97
2019-05-21T06:17:38.839Z,303.10
2019-05-21T06:18:38.820Z,303.25
2019-05-21T06:19:49.269Z,303.12
2019-05-21T06:20:48.287Z,302.99
2019-05-21T06:21:38.839Z,303.37
2019-05-21T06:22:38.767Z,303.21
2019-05-21T06:23:38.772Z,303.23
2019-05-21T06:25:56.192Z,292.02
2019-05-21T06:27:05.498Z,303.09
2019-05-21T06:28:04.545Z,303.16
2019-05-21T06:28:56.119Z,303.29
2019-05-21T06:29:56.120Z,303.35
2019-05-21T06:30:56.128Z,303.34
2019-05-21T06:31:56.134Z,303.16
2019-05-21T06:32:56.127Z,303.26
2019-05-21T06:33:56.083Z,303.28
2019-05-21T06:34:56.063Z,303.37
2019-05-21T06:35:56.082Z,303.33
2019-05-21T06:36:56.072Z,303.30
2019-05-21T06:37:56.068Z,303.58
2019-05-21T06:38:56.026Z,303.18
2019-05-21T06:39:56.000Z,303.33
2019-05-21T06:40:56.004Z,303.43
2019-05-21T06:41:56.016Z,303.23
2019-05-21T06:42:55.983Z,303.49
2019-05-21T06:43:55.995Z,303.45
2019-05-21T06:44:55.953Z,303.09
2019-05-21T06:45:55.942Z,303.39
2019-05-21T06:46:55.942Z,303.39
2019-05-21T06:47:55.966Z,303.31
2019-05-21T06:49:05.150Z,303.12
2019-05-21T06:49:55.910Z,303.32
2019-05-21T06:50:55.905Z,303.28
2019-05-21T06:51:56.231Z,303.29
2019-05-21T06:52:56.038Z,303.26
2019-05-21T06:53:55.877Z,303.25
2019-05-21T06:54:55.872Z,303.32
2019-05-21T06:55:55.852Z,303.21
2019-05-21T06:56:56.075Z,303.43
2019-05-21T06:57:55.879Z,303.08
2019-05-21T06:58:55.855Z,303.61
2019-05-21T06:59:55.865Z,303.25
2019-05-21T07:00:55.919Z,303.38
2019-05-21T07:01:55.794Z,303.37
2019-05-21T07:02:55.794Z,303.64
2019-05-21T07:03:55.792Z,303.27
2019-05-21T07:04:55.812Z,303.50
2019-05-21T07:05:59.249Z,303.63
2019-05-21T07:06:55.817Z,303.72
2019-05-21T07:07:55.740Z,303.56
2019-05-21T07:08:55.734Z,303.36
2019-05-21T07:09:55.768Z,303.50
2019-05-21T07:10:55.702Z,303.49
2019-05-21T07:11:55.678Z,303.59
2019-05-21T07:12:55.675Z,303.65
2019-05-21T07:13:55.679Z,303.53
2019-05-21T07:14:55.665Z,303.55
2019-05-21T07:15:55.670Z,303.43
2019-05-21T07:16:55.653Z,303.51
2019-05-21T07:17:55.623Z,303.45
2019-05-21T07:18:55.601Z,303.60
2019-05-21T07:19:55.623Z,303.34
2019-05-21T07:20:56.522Z,303.48
2019-05-21T07:22:11.158Z,303.44
2019-05-21T07:22:56.682Z,303.56
2019-05-21T07:23:55.562Z,303.49
2019-05-21T07:24:55.544Z,303.49
2019-05-21T07:25:55.531Z,303.57
2019-05-21T07:26:55.537Z,303.60
2019-05-21T07:27:55.552Z,303.66
2019-05-21T07:28:56.462Z,303.52
2019-05-21T07:29:55.482Z,303.68
2019-05-21T07:30:55.508Z,303.63
2019-05-21T07:32:06.929Z,303.63
2019-05-21T07:33:05.778Z,303.56
2019-05-21T07:34:05.731Z,303.35
2019-05-21T07:34:55.468Z,303.33
2019-05-21T07:35:55.446Z,303.27
2019-05-21T07:36:55.428Z,303.23
2019-05-21T07:37:55.458Z,303.52
2019-05-21T07:38:55.430Z,303.30
2019-05-21T07:40:04.751Z,303.31
2019-05-21T07:40:55.378Z,303.57
2019-05-21T07:41:55.348Z,303.33
2019-05-21T07:42:55.372Z,303.26
2019-05-21T07:43:55.369Z,303.38
2019-05-21T07:44:55.335Z,303.31
2019-05-21T07:45:55.307Z,303.39
2019-05-21T07:46:55.313Z,303.22
2019-05-21T07:47:55.293Z,303.36
2019-05-21T07:48:55.336Z,303.47
2019-05-21T07:49:55.312Z,303.25
2019-05-21T07:50:55.281Z,303.42
2019-05-21T07:51:55.270Z,303.41
2019-05-21T07:52:55.295Z,303.66
2019-05-21T07:53:55.287Z,303.27
2019-05-21T07:54:55.252Z,303.42
2019-05-21T07:55:55.221Z,303.36
2019-05-21T07:56:55.261Z,303.44
2019-05-21T07:57:55.210Z,303.73
2019-05-21T07:58:55.218Z,303.43
2019-05-21T07:59:55.213Z,303.51
2019-05-21T08:00:55.166Z,303.19
2019-05-21T08:01:55.151Z,303.43
2019-05-21T08:02:55.138Z,303.52
2019-05-21T08:03:55.210Z,303.56
2019-05-21T08:04:55.205Z,303.69
2019-05-21T08:05:55.147Z,303.53
2019-05-21T08:06:55.102Z,303.41
2019-05-21T08:07:55.096Z,303.45
2019-05-21T08:09:11.808Z,303.48
2019-05-21T08:09:56.112Z,303.03
2019-05-21T08:10:55.101Z,303.30
2019-05-21T08:11:55.041Z,303.04
2019-05-21T08:12:55.013Z,303.05
2019-05-21T08:13:55.027Z,303.00
2019-05-21T08:14:55.021Z,302.82
2019-05-21T08:15:55.029Z,302.90
2019-05-21T08:16:55.014Z,303.20
2019-05-21T08:17:54.974Z,303.27
2019-05-21T08:18:54.968Z,303.13
2019-05-21T08:19:54.964Z,302.87
2019-05-21T08:20:54.961Z,302.94
2019-05-21T08:21:54.928Z,302.80
2019-05-21T08:22:54.945Z,303.41
2019-05-21T08:23:54.912Z,303.18
2019-05-21T08:24:54.920Z,303.04
2019-05-21T08:25:54.890Z,303.17
2019-05-21T08:26:54.895Z,303.00
2019-05-21T08:27:54.959Z,303.02
2019-05-21T08:28:54.851Z,303.22
2019-05-21T08:29:54.847Z,303.01
2019-05-21T08:30:54.838Z,302.96
2019-05-21T08:31:54.856Z,302.96
2019-05-21T08:32:54.827Z,302.92
2019-05-21T08:33:54.839Z,302.97
2019-05-21T08:34:54.799Z,303.12
2019-05-21T08:35:54.792Z,303.05
2019-05-21T08:36:54.775Z,302.99
2019-05-21T08:37:54.779Z,303.33
2019-05-21T08:38:54.768Z,303.32
2019-05-21T08:39:54.822Z,303.27
2019-05-21T08:40:54.727Z,303.20
2019-05-21T08:41:54.759Z,302.87
2019-05-21T08:42:54.695Z,303.26
2019-05-21T08:43:54.691Z,302.97
2019-05-21T08:44:54.723Z,302.63
2019-05-21T08:45:54.665Z,302.96
2019-05-21T08:46:54.659Z,303.10
2019-05-21T08:47:54.667Z,303.19
2019-05-21T08:48:54.721Z,303.16
2019-05-21T08:49:54.677Z,303.10
2019-05-21T08:50:54.671Z,302.92
2019-05-21T08:51:54.620Z,303.34
2019-05-21T08:52:54.612Z,303.54
2019-05-21T08:53:54.588Z,303.21
2019-05-21T08:54:56.432Z,302.73
2019-05-21T08:55:54.591Z,302.95
2019-05-21T08:56:54.604Z,303.73
2019-05-21T08:58:06.406Z,302.69
2019-05-21T08:58:55.535Z,302.77
2019-05-21T08:59:54.567Z,302.36
2019-05-21T09:00:54.539Z,302.45
2019-05-21T09:01:58.750Z,302.25
2019-05-21T09:02:54.513Z,302.45
2019-05-21T09:03:54.500Z,301.90
2019-05-21T09:04:54.477Z,301.85
2019-05-21T09:05:54.495Z,302.15
2019-05-21T09:06:54.470Z,302.21
2019-05-21T09:07:54.456Z,301.95
2019-05-21T09:08:54.453Z,302.40
2019-05-21T09:09:54.450Z,302.08
2019-05-21T09:11:03.306Z,302.12
2019-05-21T09:12:03.822Z,302.46
2019-05-21T09:13:03.828Z,302.40
2019-05-21T09:14:03.890Z,302.42
2019-05-21T09:15:03.893Z,302.33
2019-05-21T09:16:01.911Z,302.89
2019-05-21T09:16:54.343Z,302.79
2019-05-21T09:17:54.349Z,302.90
2019-05-21T09:18:54.314Z,302.88
2019-05-21T09:19:54.309Z,302.94
2019-05-21T09:20:54.331Z,302.88
2019-05-21T09:21:54.335Z,302.79
2019-05-21T09:22:54.281Z,302.93
2019-05-21T09:23:54.275Z,303.10
2019-05-21T09:24:54.272Z,302.91
2019-05-21T09:25:54.260Z,303.20
2019-05-21T09:26:54.281Z,303.10
2019-05-21T09:27:54.279Z,303.25
2019-05-21T09:28:54.241Z,302.86
2019-05-21T09:29:54.255Z,303.18
2019-05-21T09:30:54.199Z,302.97
2019-05-21T09:31:54.204Z,303.15
2019-05-21T09:32:54.214Z,302.99
2019-05-21T09:33:54.173Z,302.97
2019-05-21T09:34:54.165Z,302.62
2019-05-21T09:35:54.143Z,302.83
2019-05-21T09:36:54.156Z,302.76
2019-05-21T09:37:54.139Z,302.66
2019-05-21T09:38:54.125Z,302.63
2019-05-21T09:39:54.139Z,302.53
2019-05-21T09:40:54.106Z,302.20
2019-05-21T09:41:54.137Z,301.99
2019-05-21T09:42:54.113Z,302.11
2019-05-21T09:43:54.202Z,301.80
2019-05-21T09:44:54.054Z,301.82
2019-05-21T09:45:54.086Z,301.79
2019-05-21T09:46:54.050Z,301.59
2019-05-21T09:47:54.037Z,301.37
2019-05-21T09:48:56.108Z,301.15
2019-05-21T09:49:53.996Z,301.09
2019-05-21T09:50:54.036Z,300.97
2019-05-21T09:51:54.102Z,301.14
2019-05-21T09:52:54.017Z,301.09
2019-05-21T09:53:53.995Z,301.23
2019-05-21T09:54:53.955Z,301.39
2019-05-21T09:55:53.962Z,301.24
2019-05-21T09:56:53.940Z,301.67
2019-05-21T09:57:53.925Z,301.54
2019-05-21T09:58:53.936Z,301.52
2019-05-21T09:59:53.904Z,301.35
2019-05-21T10:00:53.892Z,301.74
2019-05-21T10:01:53.902Z,301.43
2019-05-21T10:02:53.902Z,301.62
2019-05-21T10:03:53.888Z,301.33
2019-05-21T10:04:53.872Z,301.64
2019-05-21T10:05:53.864Z,301.59
2019-05-21T10:06:53.838Z,301.51
2019-05-21T10:07:53.835Z,301.69
2019-05-21T10:08:53.834Z,301.49
2019-05-21T10:09:53.799Z,301.46
2019-05-21T10:10:53.782Z,301.36
2019-05-21T10:11:53.802Z,301.55
2019-05-21T10:12:53.795Z,301.49
2019-05-21T10:13:53.832Z,301.68
2019-05-21T10:14:53.789Z,301.44
2019-05-21T10:15:53.748Z,301.63
2019-05-21T10:16:53.728Z,301.59
2019-05-21T10:17:53.718Z,301.46
2019-05-21T10:18:53.707Z,301.24
2019-05-21T10:19:53.703Z,301.28
2019-05-21T10:20:53.726Z,301.30
2019-05-21T10:21:56.826Z,301.30
2019-05-21T10:22:53.690Z,301.63
2019-05-21T10:23:53.672Z,300.95
2019-05-21T10:24:53.638Z,300.92
2019-05-21T10:25:53.651Z,301.50
2019-05-21T10:26:53.638Z,301.35
2019-05-21T10:27:53.613Z,301.24
2019-05-21T10:28:53.613Z,301.20
2019-05-21T10:29:53.599Z,301.16
2019-05-21T10:30:53.623Z,300.69
2019-05-21T10:31:53.581Z,300.79
2019-05-21T10:32:53.541Z,300.45
2019-05-21T10:33:53.551Z,300.62
2019-05-21T10:34:53.571Z,300.57
2019-05-21T10:35:53.579Z,300.19
2019-05-21T10:36:53.522Z,300.13
2019-05-21T10:37:55.251Z,299.92
2019-05-21T10:38:53.504Z,299.75
2019-05-21T10:39:53.473Z,299.79
2019-05-21T10:40:53.484Z,299.70
2019-05-21T10:41:53.463Z,299.76
2019-05-21T10:42:53.455Z,299.84
2019-05-21T10:43:53.427Z,299.62
2019-05-21T10:44:53.437Z,299.84
2019-05-21T10:45:53.443Z,299.85
2019-05-21T10:46:53.422Z,299.79
2019-05-21T10:47:53.388Z,299.67
2019-05-21T10:48:53.384Z,299.56
2019-05-21T10:49:53.368Z,299.28
2019-05-21T10:50:53.357Z,299.48
2019-05-21T10:51:53.374Z,299.67
2019-05-21T10:52:53.360Z,299.61
2019-05-21T10:53:53.336Z,299.42
2019-05-21T10:54:53.327Z,299.44
2019-05-21T10:55:53.313Z,299.82
2019-05-21T10:56:53.308Z,299.81
2019-05-21T10:57:53.292Z,299.49
2019-05-21T10:58:53.301Z,299.86
2019-05-21T10:59:53.289Z,299.94
2019-05-21T11:00:53.314Z,299.65
2019-05-21T11:01:53.237Z,299.57
2019-05-21T11:02:53.302Z,299.77
2019-05-21T11:03:53.225Z,299.67
2019-05-21T11:04:53.246Z,300.01
2019-05-21T11:06:08.922Z,300.05
2019-05-21T11:06:54.203Z,299.80
2019-05-21T11:07:53.181Z,299.90
2019-05-21T11:08:53.199Z,299.81
2019-05-21T11:09:53.174Z,299.95
2019-05-21T11:10:53.201Z,300.02
2019-05-21T11:11:53.187Z,299.75
2019-05-21T11:12:53.131Z,299.91
2019-05-21T11:13:53.181Z,299.95
2019-05-21T11:15:02.479Z,299.90
2019-05-21T11:16:02.497Z,299.80
2019-05-21T11:16:53.077Z,300.11
2019-05-21T11:18:09.211Z,300.11
2019-05-21T11:18:54.082Z,299.87
2019-05-21T11:19:53.046Z,299.92
2019-05-21T11:20:53.032Z,299.80
2019-05-21T11:21:53.056Z,299.93
2019-05-21T11:22:53.017Z,299.78
2019-05-21T11:23:53.161Z,299.85
2019-05-21T11:24:53.191Z,299.95
2019-05-21T11:25:52.989Z,299.95
2019-05-21T11:26:52.998Z,299.79
2019-05-21T11:27:53.007Z,300.07
2019-05-21T11:28:53.023Z,299.90
2019-05-21T11:29:52.942Z,299.95
2019-05-21T11:30:53.023Z,299.88
2019-05-21T11:32:02.007Z,299.82
2019-05-21T11:32:52.929Z,300.13
2019-05-21T11:34:01.531Z,300.05
2019-05-21T11:34:52.904Z,300.19
2019-05-21T11:35:52.883Z,300.15
2019-05-21T11:36:52.893Z,300.11
2019-05-21T11:37:52.946Z,300.23
2019-05-21T11:38:53.010Z,300.26
2019-05-21T11:39:52.848Z,300.09
2019-05-21T11:40:52.836Z,300.37
2019-05-21T11:41:52.855Z,300.45
2019-05-21T11:42:53.334Z,300.30
2019-05-21T11:43:52.806Z,300.37
2019-05-21T11:44:52.800Z,300.17
2019-05-21T11:45:52.816Z,300.26
2019-05-21T11:46:52.818Z,300.35
2019-05-21T11:47:54.739Z,300.42
2019-05-21T11:48:52.763Z,300.19
2019-05-21T11:49:52.770Z,300.30
2019-05-21T11:50:52.755Z,300.23
2019-05-21T11:51:52.745Z,300.71
2019-05-21T11:52:52.731Z,300.05
2019-05-21T11:53:52.734Z,300.77
2019-05-21T11:54:55.757Z,300.67
2019-05-21T11:55:52.723Z,300.56
2019-05-21T11:56:52.707Z,300.54
2019-05-21T11:57:52.674Z,300.54
2019-05-21T11:58:52.693Z,300.43
2019-05-21T11:59:52.701Z,300.47
2019-05-21T12:00:52.664Z,300.11
2019-05-21T12:01:52.633Z,300.29
2019-05-21T12:02:52.647Z,300.07
2019-05-21T12:03:52.636Z,299.80
2019-05-21T12:04:52.696Z,300.09
2019-05-21T12:05:52.608Z,300.11
2019-05-21T12:06:52.583Z,300.62
2019-05-21T12:07:52.631Z,300.76
2019-05-21T12:08:56.731Z,301.30
2019-05-21T12:09:52.558Z,301.28
2019-05-21T12:10:52.562Z,301.16
2019-05-21T12:11:52.542Z,300.95
2019-05-21T12:12:52.546Z,300.93
2019-05-21T12:13:52.570Z,301.35
2019-05-21T12:14:52.511Z,301.33
2019-05-21T12:15:52.497Z,301.79
2019-05-21T12:16:52.473Z,302.58
2019-05-21T12:17:52.486Z,302.99
2019-05-21T12:18:52.470Z,303.42
2019-05-21T12:19:52.475Z,303.64
2019-05-21T12:20:52.472Z,304.29
2019-05-21T12:21:52.464Z,304.31
2019-05-21T12:22:52.427Z,305.07
2019-05-21T12:23:52.411Z,305.37
2019-05-21T12:24:52.421Z,305.49
2019-05-21T12:25:52.379Z,305.49
2019-05-21T12:26:52.382Z,306.16
2019-05-21T12:27:52.449Z,305.81
2019-05-21T12:28:52.364Z,305.70
2019-05-21T12:29:52.358Z,305.37